NORTHEAST SUFFOLK  -  Winter Weather Advisory Winter Weather Advisory        NORTHERN NASSAU  -  Winter Weather Advisory Winter Weather Advisory        NORTHWEST SUFFOLK  -  Winter Weather Advisory Winter Weather Advisory        SOUTHEAST SUFFOLK  -  Winter Weather Advisory Winter Weather Advisory        SOUTHERN NASSAU  -  Winter Weather Advisory Winter Weather Advisory        SOUTHWEST SUFFOLK  -  Winter Weather Advisory Winter Weather Advisory      

Active alerts

Northern Nassau
  Details for Northern Nassau Winter Weather Advisory
Southern Nassau
  Details for Southern Nassau Winter Weather Advisory
Northwest Suffolk
  Details for Northwest Suffolk Winter Weather Advisory
Southwest Suffolk
  Details for Southwest Suffolk Winter Weather Advisory
Northeast Suffolk
  Details for Northeast Suffolk Winter Weather Advisory
Southeast Suffolk
  Details for Southeast Suffolk Winter Weather Advisory


WXM80 ListenWXM80 Stop

You find our weather info also at:

UK Metoffice

WeatherCloud

Weather Underground

Northeastern Weather Network

AWEKAS

Citizen Weather Observer Program (CWOP)

HAMweather, WeatherForYou, PWS Weather


Weather Underground History page Text

Daily Summary for September 21, 2016 Units:  English    Metric   Both
« Previous Day
Next Day »
Daily Weekly Monthly Yearly Custom
  High: Low: Average:
Temperature: 83.4 °F 65.4 °F 72.5 °F
Dew Point: 67.3 °F 56.5 °F 64 °F
Humidity: 97 % 40 % 77 %
Wind Speed: 4.2 mph 0.0 mph 0.4 mph
Wind Gust: 7.0 mph - -
Wind:- - East
Pressure: 30.16 in 30.06 in -
Precipitation: 0.00 in    
Historical Graphs
 
 
Tabular Data for September 21, 2016
Time Temperature Dew Point Pressure Wind Wind Speed Wind Gust Humidity Rainfall Rate (Hourly)
00:01 69.4 °F 67.3 °F 30.07 in Calm     93 % 0.00 in
00:07 69.2 °F 67.1 °F 30.07 in Calm     93 % 0.00 in
00:12 69.2 °F 67.1 °F 30.07 in Calm     93 % 0.00 in
00:17 69.0 °F 66.9 °F 30.07 in Calm     93 % 0.00 in
00:22 68.9 °F 66.8 °F 30.07 in Calm     93 % 0.00 in
00:28 68.8 °F 66.7 °F 30.07 in Calm     93 % 0.00 in
00:33 68.7 °F 66.6 °F 30.07 in Calm     93 % 0.00 in
00:39 68.6 °F 66.5 °F 30.07 in Calm     93 % 0.00 in
00:44 68.6 °F 66.8 °F 30.07 in Calm     94 % 0.00 in
00:59 68.3 °F 66.5 °F 30.07 in Calm     94 % 0.00 in
01:04 68.1 °F 66.3 °F 30.07 in Calm     94 % 0.00 in
01:09 68.0 °F 66.2 °F 30.06 in Calm     94 % 0.00 in
01:14 68.0 °F 66.2 °F 30.07 in Calm     94 % 0.00 in
01:19 67.9 °F 65.8 °F 30.07 in Calm     93 % 0.00 in
01:25 67.7 °F 65.9 °F 30.07 in Calm     94 % 0.00 in
01:30 67.7 °F 65.9 °F 30.07 in Calm     94 % 0.00 in
01:35 67.6 °F 65.8 °F 30.07 in Calm     94 % 0.00 in
01:40 67.6 °F 65.8 °F 30.07 in Calm     94 % 0.00 in
01:45 67.5 °F 65.7 °F 30.07 in Calm     94 % 0.00 in
01:50 67.5 °F 66.0 °F 30.07 in Calm     95 % 0.00 in
01:55 67.5 °F 66.0 °F 30.07 in Calm     95 % 0.00 in
02:00 67.5 °F 66.0 °F 30.07 in Calm     95 % 0.00 in
02:05 67.5 °F 66.0 °F 30.07 in Calm     95 % 0.00 in
02:10 67.5 °F 66.0 °F 30.07 in Calm     95 % 0.00 in
02:15 67.4 °F 65.9 °F 30.07 in Calm     95 % 0.00 in
02:20 67.4 °F 65.9 °F 30.07 in Calm     95 % 0.00 in
02:25 67.4 °F 65.9 °F 30.07 in Calm     95 % 0.00 in
02:31 67.4 °F 65.9 °F 30.07 in Calm     95 % 0.00 in
02:36 67.4 °F 65.9 °F 30.07 in Calm   1.0 mph 95 % 0.00 in
02:40 67.4 °F 65.9 °F 30.08 in Calm   1.0 mph 95 % 0.00 in
02:45 67.4 °F 66.2 °F 30.07 in Calm   1.0 mph 96 % 0.00 in
02:50 67.4 °F 66.2 °F 30.08 in Calm     96 % 0.00 in
02:55 67.4 °F 66.2 °F 30.07 in Calm     96 % 0.00 in
03:01 67.4 °F 66.2 °F 30.08 in Calm     96 % 0.00 in
03:06 67.4 °F 66.2 °F 30.08 in Calm     96 % 0.00 in
03:11 67.3 °F 66.1 °F 30.08 in Calm     96 % 0.00 in
03:16 67.3 °F 66.1 °F 30.08 in Calm     96 % 0.00 in
03:21 67.3 °F 66.1 °F 30.08 in Calm     96 % 0.00 in
03:26 67.2 °F 66.0 °F 30.08 in Calm     96 % 0.00 in
03:31 67.2 °F 66.0 °F 30.08 in Calm     96 % 0.00 in
03:36 67.1 °F 65.9 °F 30.08 in Calm     96 % 0.00 in
03:41 67.1 °F 65.9 °F 30.08 in Calm     96 % 0.00 in
03:46 67.1 °F 65.9 °F 30.08 in Calm     96 % 0.00 in
03:52 67.1 °F 65.9 °F 30.08 in South 0.2 mph 2.3 mph 96 % 0.00 in
04:02 67.2 °F 66.0 °F 30.08 in Calm     96 % 0.00 in
04:07 67.2 °F 66.0 °F 30.08 in Calm     96 % 0.00 in
04:12 67.3 °F 66.1 °F 30.08 in Calm     96 % 0.00 in
04:17 67.3 °F 66.1 °F 30.08 in Calm     96 % 0.00 in
04:22 67.2 °F 66.0 °F 30.09 in Calm     96 % 0.00 in
04:27 67.2 °F 66.0 °F 30.09 in Calm     96 % 0.00 in
04:32 67.2 °F 66.0 °F 30.09 in Calm     96 % 0.00 in
04:37 67.2 °F 66.0 °F 30.09 in Calm     96 % 0.00 in
04:43 67.3 °F 66.4 °F 30.10 in NNE 0.4 mph 1.2 mph 97 % 0.00 in
04:48 67.3 °F 66.4 °F 30.10 in Calm     97 % 0.00 in
04:53 67.4 °F 66.5 °F 30.10 in Calm     97 % 0.00 in
04:58 67.4 °F 66.5 °F 30.09 in Calm     97 % 0.00 in
05:03 67.5 °F 66.6 °F 30.10 in Calm     97 % 0.00 in
05:18 67.7 °F 66.8 °F 30.10 in Calm     97 % 0.00 in
05:23 67.7 °F 66.8 °F 30.10 in Calm     97 % 0.00 in
05:28 67.7 °F 66.8 °F 30.10 in Calm     97 % 0.00 in
05:33 67.6 °F 66.7 °F 30.10 in Calm     97 % 0.00 in
05:39 67.6 °F 66.7 °F 30.09 in Calm     97 % 0.00 in
05:44 67.6 °F 66.7 °F 30.10 in Calm     97 % 0.00 in
05:49 67.5 °F 66.6 °F 30.10 in Calm     97 % 0.00 in
05:54 67.5 °F 66.6 °F 30.10 in Calm     97 % 0.00 in
05:59 67.5 °F 66.6 °F 30.10 in Calm     97 % 0.00 in
06:04 67.5 °F 66.6 °F 30.10 in Calm     97 % 0.00 in
06:09 67.5 °F 66.6 °F 30.10 in Calm     97 % 0.00 in
06:14 67.4 °F 66.5 °F 30.10 in Calm     97 % 0.00 in
06:19 67.3 °F 66.4 °F 30.10 in Calm     97 % 0.00 in
06:24 67.2 °F 66.3 °F 30.11 in Calm     97 % 0.00 in
06:30 67.2 °F 66.3 °F 30.11 in Calm     97 % 0.00 in
06:35 67.1 °F 66.2 °F 30.11 in Calm     97 % 0.00 in
06:40 67.1 °F 66.2 °F 30.11 in NNE 0.2 mph 1.2 mph 97 % 0.00 in
06:45 67.0 °F 66.1 °F 30.11 in North 0.3 mph 2.0 mph 97 % 0.00 in
06:50 67.0 °F 66.1 °F 30.11 in North 0.4 mph 3.5 mph 97 % 0.00 in
06:55 67.0 °F 66.1 °F 30.11 in NNE 1.6 mph 3.0 mph 97 % 0.00 in
07:05 66.8 °F 65.6 °F 30.12 in NNE 2.4 mph 4.6 mph 96 % 0.00 in
07:10 66.7 °F 65.5 °F 30.12 in North 2.1 mph 4.0 mph 96 % 0.00 in
07:15 66.7 °F 65.5 °F 30.12 in NNE 0.6 mph 3.5 mph 96 % 0.00 in
07:20 66.6 °F 65.4 °F 30.12 in NNE 2.6 mph 3.5 mph 96 % 0.00 in
07:26 66.5 °F 65.0 °F 30.13 in NNE 1.0 mph 4.0 mph 95 % 0.00 in
07:31 66.5 °F 65.0 °F 30.13 in Calm   3.0 mph 95 % 0.00 in
07:36 66.5 °F 65.0 °F 30.13 in North 1.0 mph 4.0 mph 95 % 0.00 in
07:41 66.6 °F 65.1 °F 30.13 in NNE 1.1 mph 1.2 mph 95 % 0.00 in
07:46 66.7 °F 65.2 °F 30.13 in Calm   2.0 mph 95 % 0.00 in
07:51 66.8 °F 65.3 °F 30.13 in Calm     95 % 0.00 in
07:56 66.8 °F 65.3 °F 30.13 in NE 0.2 mph 1.2 mph 95 % 0.00 in
08:01 66.8 °F 65.0 °F 30.13 in ENE 1.0 mph 1.2 mph 94 % 0.00 in
08:06 66.9 °F 65.1 °F 30.14 in NNE 1.0 mph 4.0 mph 94 % 0.00 in
08:11 67.0 °F 65.2 °F 30.13 in NE 1.8 mph 3.5 mph 94 % 0.00 in
08:16 67.1 °F 64.7 °F 30.13 in NNE 3.0 mph 7.0 mph 92 % 0.00 in
08:21 67.2 °F 64.8 °F 30.13 in NNE 2.0 mph 5.0 mph 92 % 0.00 in
08:26 67.4 °F 64.4 °F 30.13 in NNE 2.6 mph 4.6 mph 90 % 0.00 in
08:31 67.6 °F 64.6 °F 30.13 in NNE 3.0 mph 6.0 mph 90 % 0.00 in
08:36 67.8 °F 64.8 °F 30.14 in NNE 1.0 mph 4.0 mph 90 % 0.00 in
08:41 68.1 °F 65.1 °F 30.14 in NNE 3.0 mph 5.0 mph 90 % 0.00 in
08:46 68.4 °F 65.7 °F 30.14 in NNE 2.0 mph 4.0 mph 91 % 0.00 in
08:51 68.6 °F 65.9 °F 30.14 in Calm   2.0 mph 91 % 0.00 in
08:56 68.9 °F 66.2 °F 30.14 in ENE 1.7 mph 2.0 mph 91 % 0.00 in
09:01 69.2 °F 65.5 °F 30.14 in NE 0.1 mph 3.5 mph 88 % 0.00 in
09:06 69.4 °F 65.0 °F 30.14 in ENE 2.4 mph 3.5 mph 86 % 0.00 in
09:11 69.6 °F 64.5 °F 30.14 in NE 2.1 mph 3.5 mph 84 % 0.00 in
09:16 69.8 °F 63.7 °F 30.15 in NE 1.8 mph 3.5 mph 81 % 0.00 in
09:21 70.1 °F 63.6 °F 30.15 in NE 2.2 mph 4.6 mph 80 % 0.00 in
09:26 70.3 °F 64.9 °F 30.15 in NE 0.5 mph 2.0 mph 83 % 0.00 in
09:31 70.6 °F 65.2 °F 30.15 in ENE 0.2 mph 1.2 mph 83 % 0.00 in
09:36 70.8 °F 65.0 °F 30.15 in NE 1.6 mph 3.5 mph 82 % 0.00 in
09:41 71.0 °F 64.5 °F 30.15 in North 2.1 mph 3.5 mph 80 % 0.00 in
09:47 71.2 °F 64.7 °F 30.15 in East 2.0 mph 2.3 mph 80 % 0.00 in
09:52 71.4 °F 64.9 °F 30.15 in NNE 4.2 mph 5.8 mph 80 % 0.00 in
10:02 71.8 °F 63.8 °F 30.16 in NNE 2.8 mph 3.5 mph 76 % 0.00 in
10:07 71.9 °F 63.9 °F 30.16 in NNE 3.1 mph 5.8 mph 76 % 0.00 in
10:12 72.1 °F 63.7 °F 30.16 in NNE 2.2 mph 3.5 mph 75 % 0.00 in
10:17 72.3 °F 63.9 °F 30.16 in ENE 3.0 mph 4.0 mph 75 % 0.00 in
10:22 72.5 °F 64.1 °F 30.16 in NNW 1.4 mph 3.5 mph 75 % 0.00 in
10:32 73.0 °F 65.0 °F 30.16 in NNE 3.0 mph 3.5 mph 76 % 0.00 in
10:37 73.2 °F 64.0 °F 30.16 in NNE 1.5 mph 2.3 mph 73 % 0.00 in
10:42 73.4 °F 64.6 °F 30.16 in NNE 0.7 mph 2.3 mph 74 % 0.00 in
10:47 73.5 °F 63.9 °F 30.16 in NNE 3.3 mph 4.6 mph 72 % 0.00 in
10:53 73.7 °F 64.5 °F 30.15 in North 2.3 mph 3.5 mph 73 % 0.00 in
10:58 73.8 °F 63.8 °F 30.15 in NNW 0.8 mph 3.5 mph 71 % 0.00 in
11:03 73.9 °F 63.9 °F 30.16 in NNW 2.8 mph 4.0 mph 71 % 0.00 in
11:08 74.1 °F 64.5 °F 30.15 in NNE 0.3 mph 1.2 mph 72 % 0.00 in
11:13 74.4 °F 64.0 °F 30.15 in NNW 0.6 mph 3.0 mph 70 % 0.00 in
11:18 74.9 °F 64.9 °F 30.15 in NNW 0.3 mph 1.2 mph 71 % 0.00 in
11:23 75.3 °F 63.6 °F 30.15 in NNW 0.4 mph 2.3 mph 67 % 0.00 in
11:28 75.7 °F 64.0 °F 30.15 in NNE 1.9 mph 3.5 mph 67 % 0.00 in
11:33 76.2 °F 65.3 °F 30.15 in NNW 1.1 mph 3.5 mph 69 % 0.00 in
11:38 76.8 °F 64.6 °F 30.15 in NNW 1.1 mph 2.3 mph 66 % 0.00 in
11:43 77.5 °F 64.8 °F 30.15 in NNE 0.3 mph 3.5 mph 65 % 0.00 in
11:48 78.0 °F 64.4 °F 30.14 in NW 0.1 mph 2.3 mph 63 % 0.00 in
11:54 78.5 °F 63.9 °F 30.15 in NNW 2.3 mph 4.0 mph 61 % 0.00 in
11:59 78.8 °F 62.8 °F 30.15 in NNE 0.7 mph 3.5 mph 58 % 0.00 in
12:04 79.1 °F 64.5 °F 30.14 in NNE 2.2 mph 3.5 mph 61 % 0.00 in
12:09 79.5 °F 65.3 °F 30.14 in NNE 2.2 mph 3.5 mph 62 % 0.00 in
12:14 79.9 °F 63.8 °F 30.14 in NW 1.5 mph 4.6 mph 58 % 0.00 in
12:19 80.0 °F 63.4 °F 30.14 in NNE 3.5 mph 5.0 mph 57 % 0.00 in
12:24 80.3 °F 63.7 °F 30.14 in WNW 1.0 mph 3.5 mph 57 % 0.00 in
12:29 80.4 °F 62.8 °F 30.14 in North 1.1 mph 3.5 mph 55 % 0.00 in
12:34 80.5 °F 61.8 °F 30.14 in NNE 0.1 mph 1.2 mph 53 % 0.00 in
12:40 80.9 °F 64.7 °F 30.14 in WNW 0.3 mph 3.5 mph 58 % 0.00 in
12:45 81.3 °F 65.1 °F 30.13 in Calm   2.3 mph 58 % 0.00 in
12:50 81.6 °F 62.8 °F 30.14 in Calm   2.3 mph 53 % 0.00 in
12:55 81.8 °F 66.1 °F 30.13 in NNE 0.2 mph 1.2 mph 59 % 0.00 in
13:00 81.9 °F 64.1 °F 30.14 in NNE 0.1 mph   55 % 0.00 in
13:05 82.0 °F 64.2 °F 30.13 in Calm     55 % 0.00 in
13:10 82.0 °F 61.0 °F 30.13 in ENE 0.9 mph 3.5 mph 49 % 0.00 in
13:15 81.9 °F 62.0 °F 30.13 in ENE 1.2 mph 3.5 mph 51 % 0.00 in
13:20 81.9 °F 62.5 °F 30.13 in Calm   1.2 mph 52 % 0.00 in
13:25 81.9 °F 62.5 °F 30.13 in NNE 0.6 mph 2.3 mph 52 % 0.00 in
13:31 81.9 °F 60.9 °F 30.13 in NE 0.2 mph 2.3 mph 49 % 0.00 in
13:36 81.7 °F 60.7 °F 30.13 in Calm   2.0 mph 49 % 0.00 in
13:41 81.6 °F 60.0 °F 30.13 in NE 1.0 mph 2.0 mph 48 % 0.00 in
13:51 81.4 °F 62.1 °F 30.12 in Calm   2.0 mph 52 % 0.00 in
13:56 81.2 °F 60.8 °F 30.12 in Calm   2.0 mph 50 % 0.00 in
14:01 81.1 °F 62.3 °F 30.12 in Calm     53 % 0.00 in
14:06 81.2 °F 61.4 °F 30.11 in Calm   1.0 mph 51 % 0.00 in
14:11 81.4 °F 60.4 °F 30.11 in Calm   1.0 mph 49 % 0.00 in
14:16 81.8 °F 59.6 °F 30.11 in Calm   1.2 mph 47 % 0.00 in
14:21 82.2 °F 61.7 °F 30.11 in NE 0.1 mph 1.0 mph 50 % 0.00 in
14:26 82.4 °F 58.3 °F 30.11 in NE 0.8 mph 2.3 mph 44 % 0.00 in
14:31 82.5 °F 59.6 °F 30.12 in ENE 0.3 mph 2.3 mph 46 % 0.00 in
14:36 82.8 °F 61.7 °F 30.11 in NNE 0.9 mph 2.3 mph 49 % 0.00 in
14:41 82.8 °F 58.7 °F 30.11 in NE 0.5 mph 3.5 mph 44 % 0.00 in
14:46 82.9 °F 61.2 °F 30.11 in Calm   1.0 mph 48 % 0.00 in
14:51 82.9 °F 58.7 °F 30.11 in NE 0.1 mph 1.2 mph 44 % 0.00 in
14:56 82.9 °F 58.1 °F 30.11 in NE 0.1 mph 1.2 mph 43 % 0.00 in
15:02 82.9 °F 58.1 °F 30.11 in ENE 0.2 mph 2.3 mph 43 % 0.00 in
15:07 82.9 °F 59.4 °F 30.11 in ENE 0.1 mph 1.2 mph 45 % 0.00 in
15:12 82.9 °F 57.5 °F 30.11 in Calm   1.2 mph 42 % 0.00 in
15:17 83.1 °F 58.3 °F 30.11 in NNE 0.4 mph 1.2 mph 43 % 0.00 in
15:22 83.2 °F 58.4 °F 30.11 in Calm   1.2 mph 43 % 0.00 in
15:27 83.3 °F 57.1 °F 30.11 in NNW 0.2 mph 1.0 mph 41 % 0.00 in
15:32 83.4 °F 59.2 °F 30.11 in Calm     44 % 0.00 in
15:37 83.3 °F 58.5 °F 30.11 in Calm     43 % 0.00 in
15:42 83.4 °F 56.5 °F 30.11 in Calm     40 % 0.00 in
15:47 83.3 °F 59.1 °F 30.11 in Calm     44 % 0.00 in
15:52 83.1 °F 58.9 °F 30.11 in Calm     44 % 0.00 in
15:58 82.9 °F 57.5 °F 30.11 in Calm     42 % 0.00 in
16:03 82.9 °F 58.1 °F 30.11 in Calm     43 % 0.00 in
16:08 82.9 °F 57.5 °F 30.11 in Calm     42 % 0.00 in
16:13 82.9 °F 58.1 °F 30.10 in Calm     43 % 0.00 in
16:18 82.8 °F 59.9 °F 30.10 in Calm     46 % 0.00 in
16:23 82.7 °F 59.2 °F 30.10 in Calm     45 % 0.00 in
16:28 82.6 °F 59.1 °F 30.10 in Calm     45 % 0.00 in
16:33 82.5 °F 59.0 °F 30.10 in Calm   1.2 mph 45 % 0.00 in
16:38 82.5 °F 60.8 °F 30.10 in Calm     48 % 0.00 in
16:43 82.5 °F 60.2 °F 30.10 in Calm     47 % 0.00 in
16:49 82.5 °F 59.6 °F 30.10 in Calm     46 % 0.00 in
16:54 82.4 °F 61.3 °F 30.10 in Calm     49 % 0.00 in
16:59 82.1 °F 60.5 °F 30.10 in Calm     48 % 0.00 in
17:04 81.9 °F 61.4 °F 30.10 in Calm     50 % 0.00 in
17:09 81.6 °F 61.7 °F 30.11 in Calm     51 % 0.00 in
17:14 81.4 °F 61.5 °F 30.11 in Calm     51 % 0.00 in
17:19 81.3 °F 60.9 °F 30.11 in Calm     50 % 0.00 in
17:24 81.1 °F 62.9 °F 30.10 in Calm     54 % 0.00 in
17:29 80.8 °F 63.6 °F 30.10 in Calm     56 % 0.00 in
17:34 80.6 °F 64.5 °F 30.11 in Calm     58 % 0.00 in
17:39 80.3 °F 64.2 °F 30.11 in Calm     58 % 0.00 in
17:44 80.1 °F 63.0 °F 30.11 in Calm     56 % 0.00 in
17:50 80.0 °F 64.9 °F 30.11 in Calm   1.2 mph 60 % 0.00 in
18:00 79.4 °F 66.2 °F 30.11 in Calm     64 % 0.00 in
18:10 78.9 °F 66.6 °F 30.11 in Calm     66 % 0.00 in
18:15 78.6 °F 65.8 °F 30.11 in Calm     65 % 0.00 in
18:20 78.2 °F 65.5 °F 30.11 in Calm     65 % 0.00 in
18:25 77.9 °F 64.7 °F 30.11 in Calm     64 % 0.00 in
18:30 77.5 °F 64.4 °F 30.11 in Calm     64 % 0.00 in
18:41 76.8 °F 64.6 °F 30.12 in Calm   1.0 mph 66 % 0.00 in
18:46 76.6 °F 64.8 °F 30.12 in Calm     67 % 0.00 in
18:51 76.2 °F 64.9 °F 30.12 in Calm     68 % 0.00 in
18:56 75.9 °F 64.6 °F 30.12 in Calm   1.0 mph 68 % 0.00 in
19:01 75.6 °F 65.1 °F 30.12 in Calm     70 % 0.00 in
19:06 75.1 °F 65.1 °F 30.12 in Calm     71 % 0.00 in
19:11 74.7 °F 65.1 °F 30.12 in Calm     72 % 0.00 in
19:16 74.3 °F 64.7 °F 30.12 in Calm     72 % 0.00 in
19:21 73.9 °F 64.7 °F 30.12 in Calm     73 % 0.00 in
19:26 73.5 °F 64.7 °F 30.12 in Calm     74 % 0.00 in
19:31 73.0 °F 64.6 °F 30.12 in Calm     75 % 0.00 in
19:36 72.7 °F 64.3 °F 30.12 in Calm     75 % 0.00 in
19:41 72.5 °F 64.5 °F 30.12 in Calm   1.2 mph 76 % 0.00 in
19:46 72.1 °F 64.1 °F 30.12 in Calm     76 % 0.00 in
19:52 71.8 °F 63.8 °F 30.12 in Calm     76 % 0.00 in
19:57 71.5 °F 63.5 °F 30.13 in Calm     76 % 0.00 in
20:02 71.3 °F 63.3 °F 30.13 in Calm     76 % 0.00 in
20:07 71.0 °F 63.4 °F 30.13 in Calm     77 % 0.00 in
20:12 70.7 °F 63.5 °F 30.14 in Calm     78 % 0.00 in
20:17 70.4 °F 63.6 °F 30.13 in Calm     79 % 0.00 in
20:22 70.2 °F 63.4 °F 30.14 in Calm     79 % 0.00 in
20:27 69.9 °F 63.1 °F 30.13 in Calm     79 % 0.00 in
20:32 69.8 °F 63.3 °F 30.14 in Calm     80 % 0.00 in
20:37 69.6 °F 63.5 °F 30.14 in Calm     81 % 0.00 in
20:43 69.4 °F 63.3 °F 30.14 in Calm     81 % 0.00 in
20:48 69.2 °F 63.1 °F 30.14 in Calm     81 % 0.00 in
20:53 69.0 °F 63.3 °F 30.14 in Calm     82 % 0.00 in
20:58 68.8 °F 63.4 °F 30.14 in Calm     83 % 0.00 in
21:03 68.7 °F 63.3 °F 30.14 in Calm     83 % 0.00 in
21:08 68.6 °F 63.2 °F 30.14 in Calm     83 % 0.00 in
21:13 68.4 °F 63.4 °F 30.14 in Calm     84 % 0.00 in
21:18 68.3 °F 63.3 °F 30.14 in Calm     84 % 0.00 in
21:23 68.1 °F 63.4 °F 30.14 in Calm     85 % 0.00 in
21:28 68.0 °F 63.3 °F 30.14 in Calm     85 % 0.00 in
21:34 67.9 °F 63.6 °F 30.14 in Calm     86 % 0.00 in
21:39 67.8 °F 63.5 °F 30.15 in Calm   1.2 mph 86 % 0.00 in
21:44 67.7 °F 63.4 °F 30.15 in Calm   1.2 mph 86 % 0.00 in
21:49 67.6 °F 63.3 °F 30.15 in Calm   1.2 mph 86 % 0.00 in
21:54 67.5 °F 63.5 °F 30.14 in Calm     87 % 0.00 in
21:59 67.4 °F 63.4 °F 30.14 in Calm     87 % 0.00 in
22:04 67.3 °F 63.3 °F 30.14 in Calm     87 % 0.00 in
22:09 67.2 °F 63.5 °F 30.14 in Calm     88 % 0.00 in
22:14 67.1 °F 63.4 °F 30.15 in Calm     88 % 0.00 in
22:19 67.0 °F 63.3 °F 30.15 in Calm   1.2 mph 88 % 0.00 in
22:25 66.9 °F 63.6 °F 30.15 in Calm     89 % 0.00 in
22:30 66.9 °F 63.9 °F 30.15 in Calm   1.2 mph 90 % 0.00 in
22:35 66.8 °F 63.8 °F 30.15 in NE 0.1 mph 1.2 mph 90 % 0.00 in
22:40 66.7 °F 63.7 °F 30.15 in NE 0.1 mph 1.0 mph 90 % 0.00 in
22:45 66.7 °F 63.7 °F 30.15 in Calm     90 % 0.00 in
22:50 66.6 °F 63.6 °F 30.15 in Calm     90 % 0.00 in
22:55 66.5 °F 63.5 °F 30.15 in Calm     90 % 0.00 in
23:00 66.4 °F 63.4 °F 30.15 in Calm     90 % 0.00 in
23:05 66.3 °F 63.3 °F 30.15 in Calm     90 % 0.00 in
23:10 66.2 °F 63.2 °F 30.15 in Calm     90 % 0.00 in
23:15 66.1 °F 63.1 °F 30.14 in Calm     90 % 0.00 in
23:21 66.0 °F 63.0 °F 30.15 in Calm     90 % 0.00 in
23:26 65.9 °F 63.2 °F 30.14 in Calm     91 % 0.00 in
23:31 65.9 °F 63.2 °F 30.14 in Calm     91 % 0.00 in
23:36 65.8 °F 63.1 °F 30.15 in Calm     91 % 0.00 in
23:41 65.7 °F 63.0 °F 30.14 in Calm   1.0 mph 91 % 0.00 in
23:46 65.6 °F 62.9 °F 30.14 in Calm   1.0 mph 91 % 0.00 in
23:51 65.5 °F 62.8 °F 30.14 in Calm   1.0 mph 91 % 0.00 in
23:56 65.4 °F 62.7 °F 30.14 in Calm     91 % 0.00 in
Crab Meadow Weather
Compliments of Weather Underground - 2.75 mb

Script developed by  Jim McMurry - jmcmurry@mwt.net Adapted for the template by  Wim van der Kuil - Leuven-Template.eu

Recycling: The average household throws away 13,000 separate pieces of paper each year. Most is packaging and junk mail.